sensor_id;sensor_type;location;lat;lon;timestamp;P1;durP1;ratioP1;P2;durP2;ratioP2
5867;SDS011;2960;49.142;7.768;2023-02-04T00:00:12;9.80;;;4.40;;
5867;SDS011;2960;49.142;7.768;2023-02-04T00:02:43;10.37;;;3.70;;
5867;SDS011;2960;49.142;7.768;2023-02-04T00:05:10;8.93;;;3.53;;
5867;SDS011;2960;49.142;7.768;2023-02-04T00:07:41;9.53;;;3.83;;
5867;SDS011;2960;49.142;7.768;2023-02-04T00:10:08;11.97;;;4.13;;
5867;SDS011;2960;49.142;7.768;2023-02-04T00:12:37;10.03;;;3.90;;
5867;SDS011;2960;49.142;7.768;2023-02-04T00:15:05;10.23;;;4.07;;
5867;SDS011;2960;49.142;7.768;2023-02-04T00:17:34;10.97;;;4.23;;
5867;SDS011;2960;49.142;7.768;2023-02-04T00:20:03;9.77;;;3.60;;
5867;SDS011;2960;49.142;7.768;2023-02-04T00:22:31;9.23;;;3.73;;
5867;SDS011;2960;49.142;7.768;2023-02-04T00:24:58;10.30;;;4.13;;
5867;SDS011;2960;49.142;7.768;2023-02-04T00:27:25;9.20;;;3.80;;
5867;SDS011;2960;49.142;7.768;2023-02-04T00:29:54;9.10;;;3.70;;
5867;SDS011;2960;49.142;7.768;2023-02-04T00:32:21;9.87;;;3.90;;
5867;SDS011;2960;49.142;7.768;2023-02-04T00:34:48;9.57;;;3.90;;
5867;SDS011;2960;49.142;7.768;2023-02-04T00:37:18;10.97;;;4.03;;
5867;SDS011;2960;49.142;7.768;2023-02-04T00:39:45;9.43;;;3.97;;
5867;SDS011;2960;49.142;7.768;2023-02-04T00:42:12;10.03;;;3.80;;
5867;SDS011;2960;49.142;7.768;2023-02-04T00:44:41;9.60;;;3.53;;
5867;SDS011;2960;49.142;7.768;2023-02-04T00:47:10;10.93;;;4.10;;
5867;SDS011;2960;49.142;7.768;2023-02-04T00:49:39;11.70;;;4.10;;
5867;SDS011;2960;49.142;7.768;2023-02-04T00:52:06;10.50;;;4.00;;
5867;SDS011;2960;49.142;7.768;2023-02-04T00:54:33;13.40;;;4.37;;
5867;SDS011;2960;49.142;7.768;2023-02-04T00:57:00;11.80;;;4.37;;
5867;SDS011;2960;49.142;7.768;2023-02-04T00:59:28;10.27;;;4.27;;
5867;SDS011;2960;49.142;7.768;2023-02-04T01:01:55;9.00;;;3.70;;
5867;SDS011;2960;49.142;7.768;2023-02-04T01:04:24;10.73;;;4.33;;
5867;SDS011;2960;49.142;7.768;2023-02-04T01:06:52;9.77;;;3.73;;
5867;SDS011;2960;49.142;7.768;2023-02-04T01:09:19;10.47;;;4.20;;
5867;SDS011;2960;49.142;7.768;2023-02-04T01:11:46;10.70;;;4.07;;
5867;SDS011;2960;49.142;7.768;2023-02-04T01:14:13;10.30;;;4.30;;
5867;SDS011;2960;49.142;7.768;2023-02-04T01:16:40;11.10;;;4.10;;
5867;SDS011;2960;49.142;7.768;2023-02-04T01:19:08;10.40;;;3.80;;
5867;SDS011;2960;49.142;7.768;2023-02-04T01:21:36;10.30;;;3.90;;
5867;SDS011;2960;49.142;7.768;2023-02-04T01:24:04;10.33;;;4.03;;
5867;SDS011;2960;49.142;7.768;2023-02-04T01:26:31;10.03;;;3.77;;
5867;SDS011;2960;49.142;7.768;2023-02-04T01:28:58;9.23;;;3.90;;
5867;SDS011;2960;49.142;7.768;2023-02-04T01:31:25;11.50;;;4.10;;
5867;SDS011;2960;49.142;7.768;2023-02-04T01:33:55;9.30;;;3.47;;
5867;SDS011;2960;49.142;7.768;2023-02-04T01:36:22;9.70;;;3.83;;
5867;SDS011;2960;49.142;7.768;2023-02-04T01:38:51;10.57;;;3.90;;
5867;SDS011;2960;49.142;7.768;2023-02-04T01:41:18;10.33;;;4.03;;
5867;SDS011;2960;49.142;7.768;2023-02-04T01:43:45;9.57;;;3.70;;
5867;SDS011;2960;49.142;7.768;2023-02-04T01:46:13;10.17;;;3.67;;
5867;SDS011;2960;49.142;7.768;2023-02-04T01:48:41;9.93;;;4.07;;
5867;SDS011;2960;49.142;7.768;2023-02-04T01:51:09;9.80;;;3.77;;
5867;SDS011;2960;49.142;7.768;2023-02-04T01:53:38;9.77;;;3.77;;
5867;SDS011;2960;49.142;7.768;2023-02-04T01:56:13;10.00;;;3.70;;
5867;SDS011;2960;49.142;7.768;2023-02-04T01:58:44;9.90;;;4.10;;
5867;SDS011;2960;49.142;7.768;2023-02-04T02:01:12;9.27;;;3.60;;
5867;SDS011;2960;49.142;7.768;2023-02-04T02:03:41;9.90;;;3.77;;
5867;SDS011;2960;49.142;7.768;2023-02-04T02:06:08;9.70;;;3.60;;
5867;SDS011;2960;49.142;7.768;2023-02-04T02:08:36;10.20;;;3.83;;
5867;SDS011;2960;49.142;7.768;2023-02-04T02:11:03;9.63;;;3.73;;
5867;SDS011;2960;49.142;7.768;2023-02-04T02:13:32;9.67;;;3.87;;
5867;SDS011;2960;49.142;7.768;2023-02-04T02:15:59;9.10;;;3.67;;
5867;SDS011;2960;49.142;7.768;2023-02-04T02:18:28;9.53;;;3.70;;
5867;SDS011;2960;49.142;7.768;2023-02-04T02:20:55;9.77;;;3.77;;
5867;SDS011;2960;49.142;7.768;2023-02-04T02:26:15;10.03;;;3.73;;
5867;SDS011;2960;49.142;7.768;2023-02-04T02:28:47;9.27;;;3.80;;
5867;SDS011;2960;49.142;7.768;2023-02-04T02:31:15;9.90;;;3.83;;
5867;SDS011;2960;49.142;7.768;2023-02-04T02:33:46;9.80;;;3.93;;
5867;SDS011;2960;49.142;7.768;2023-02-04T02:36:13;10.33;;;4.10;;
5867;SDS011;2960;49.142;7.768;2023-02-04T02:38:44;9.00;;;3.37;;
5867;SDS011;2960;49.142;7.768;2023-02-04T02:41:12;11.50;;;4.03;;
5867;SDS011;2960;49.142;7.768;2023-02-04T02:43:39;9.23;;;3.50;;
5867;SDS011;2960;49.142;7.768;2023-02-04T02:46:06;9.00;;;3.43;;
5867;SDS011;2960;49.142;7.768;2023-02-04T02:48:34;9.47;;;3.50;;
5867;SDS011;2960;49.142;7.768;2023-02-04T02:51:01;9.80;;;3.57;;
5867;SDS011;2960;49.142;7.768;2023-02-04T02:53:29;9.07;;;3.40;;
5867;SDS011;2960;49.142;7.768;2023-02-04T02:55:56;9.90;;;3.60;;
5867;SDS011;2960;49.142;7.768;2023-02-04T02:58:30;9.37;;;3.60;;
5867;SDS011;2960;49.142;7.768;2023-02-04T03:01:00;10.00;;;3.70;;
5867;SDS011;2960;49.142;7.768;2023-02-04T03:03:31;10.00;;;3.87;;
5867;SDS011;2960;49.142;7.768;2023-02-04T03:06:02;9.60;;;3.60;;
5867;SDS011;2960;49.142;7.768;2023-02-04T03:08:34;9.00;;;3.33;;
5867;SDS011;2960;49.142;7.768;2023-02-04T03:11:02;9.80;;;3.63;;
5867;SDS011;2960;49.142;7.768;2023-02-04T03:13:31;10.70;;;3.40;;
5867;SDS011;2960;49.142;7.768;2023-02-04T03:15:59;9.40;;;3.80;;
5867;SDS011;2960;49.142;7.768;2023-02-04T03:18:26;9.57;;;3.53;;
5867;SDS011;2960;49.142;7.768;2023-02-04T03:20:54;9.43;;;3.20;;
5867;SDS011;2960;49.142;7.768;2023-02-04T03:23:24;9.60;;;3.00;;
5867;SDS011;2960;49.142;7.768;2023-02-04T03:25:52;8.93;;;3.33;;
5867;SDS011;2960;49.142;7.768;2023-02-04T03:28:19;8.20;;;2.83;;
5867;SDS011;2960;49.142;7.768;2023-02-04T03:30:51;8.47;;;2.90;;
5867;SDS011;2960;49.142;7.768;2023-02-04T03:33:20;8.70;;;2.80;;
5867;SDS011;2960;49.142;7.768;2023-02-04T03:35:47;8.63;;;3.03;;
5867;SDS011;2960;49.142;7.768;2023-02-04T03:38:18;8.30;;;2.77;;
5867;SDS011;2960;49.142;7.768;2023-02-04T03:40:47;9.40;;;3.10;;
5867;SDS011;2960;49.142;7.768;2023-02-04T03:43:14;8.17;;;2.90;;
5867;SDS011;2960;49.142;7.768;2023-02-04T03:45:41;8.20;;;2.90;;
5867;SDS011;2960;49.142;7.768;2023-02-04T03:48:10;8.30;;;2.80;;
5867;SDS011;2960;49.142;7.768;2023-02-04T03:50:37;8.40;;;3.00;;
5867;SDS011;2960;49.142;7.768;2023-02-04T03:53:04;8.57;;;3.10;;
5867;SDS011;2960;49.142;7.768;2023-02-04T03:55:31;8.50;;;3.00;;
5867;SDS011;2960;49.142;7.768;2023-02-04T03:57:58;8.30;;;3.03;;
5867;SDS011;2960;49.142;7.768;2023-02-04T04:00:29;10.50;;;2.80;;
5867;SDS011;2960;49.142;7.768;2023-02-04T04:02:56;8.20;;;2.83;;
5867;SDS011;2960;49.142;7.768;2023-02-04T04:05:25;8.30;;;2.70;;
5867;SDS011;2960;49.142;7.768;2023-02-04T04:07:52;12.00;;;3.10;;
5867;SDS011;2960;49.142;7.768;2023-02-04T04:10:19;8.93;;;2.60;;
5867;SDS011;2960;49.142;7.768;2023-02-04T04:12:46;8.23;;;2.63;;
5867;SDS011;2960;49.142;7.768;2023-02-04T04:15:13;7.97;;;2.80;;
5867;SDS011;2960;49.142;7.768;2023-02-04T04:17:40;8.77;;;2.80;;
5867;SDS011;2960;49.142;7.768;2023-02-04T04:20:08;9.60;;;2.67;;
5867;SDS011;2960;49.142;7.768;2023-02-04T04:22:38;8.20;;;2.53;;
5867;SDS011;2960;49.142;7.768;2023-02-04T04:25:09;8.00;;;2.70;;
5867;SDS011;2960;49.142;7.768;2023-02-04T04:27:37;8.20;;;2.60;;
5867;SDS011;2960;49.142;7.768;2023-02-04T04:30:06;7.90;;;2.70;;
5867;SDS011;2960;49.142;7.768;2023-02-04T04:32:35;9.70;;;2.80;;
5867;SDS011;2960;49.142;7.768;2023-02-04T04:35:02;7.97;;;2.70;;
5867;SDS011;2960;49.142;7.768;2023-02-04T04:37:29;7.60;;;2.40;;
5867;SDS011;2960;49.142;7.768;2023-02-04T04:40:00;8.43;;;2.60;;
5867;SDS011;2960;49.142;7.768;2023-02-04T04:42:27;7.60;;;2.30;;
5867;SDS011;2960;49.142;7.768;2023-02-04T04:44:54;8.17;;;2.60;;
5867;SDS011;2960;49.142;7.768;2023-02-04T04:47:21;7.80;;;2.57;;
5867;SDS011;2960;49.142;7.768;2023-02-04T04:49:48;8.23;;;2.47;;
5867;SDS011;2960;49.142;7.768;2023-02-04T04:52:15;7.90;;;2.40;;
5867;SDS011;2960;49.142;7.768;2023-02-04T04:54:42;8.00;;;2.60;;
5867;SDS011;2960;49.142;7.768;2023-02-04T04:57:11;7.83;;;2.50;;
5867;SDS011;2960;49.142;7.768;2023-02-04T04:59:38;7.73;;;2.50;;
5867;SDS011;2960;49.142;7.768;2023-02-04T05:02:05;7.90;;;2.60;;
5867;SDS011;2960;49.142;7.768;2023-02-04T05:04:32;8.10;;;2.40;;
5867;SDS011;2960;49.142;7.768;2023-02-04T05:06:59;7.70;;;2.20;;
5867;SDS011;2960;49.142;7.768;2023-02-04T05:09:26;8.33;;;2.30;;
5867;SDS011;2960;49.142;7.768;2023-02-04T05:11:53;8.40;;;2.30;;
5867;SDS011;2960;49.142;7.768;2023-02-04T05:14:22;7.63;;;2.50;;
5867;SDS011;2960;49.142;7.768;2023-02-04T05:16:49;7.57;;;2.30;;
5867;SDS011;2960;49.142;7.768;2023-02-04T05:19:19;7.37;;;2.10;;
5867;SDS011;2960;49.142;7.768;2023-02-04T05:21:46;7.63;;;2.43;;
5867;SDS011;2960;49.142;7.768;2023-02-04T05:24:13;8.37;;;2.10;;
5867;SDS011;2960;49.142;7.768;2023-02-04T05:26:40;7.37;;;2.07;;
5867;SDS011;2960;49.142;7.768;2023-02-04T05:29:07;8.00;;;2.43;;
5867;SDS011;2960;49.142;7.768;2023-02-04T05:31:36;7.73;;;2.30;;
5867;SDS011;2960;49.142;7.768;2023-02-04T05:34:03;7.50;;;2.30;;
5867;SDS011;2960;49.142;7.768;2023-02-04T05:36:30;7.90;;;2.40;;
5867;SDS011;2960;49.142;7.768;2023-02-04T05:38:57;7.60;;;2.27;;
5867;SDS011;2960;49.142;7.768;2023-02-04T05:41:25;8.30;;;2.30;;
5867;SDS011;2960;49.142;7.768;2023-02-04T05:43:52;7.87;;;2.33;;
5867;SDS011;2960;49.142;7.768;2023-02-04T05:46:19;7.90;;;2.50;;
5867;SDS011;2960;49.142;7.768;2023-02-04T05:48:47;8.20;;;2.30;;
5867;SDS011;2960;49.142;7.768;2023-02-04T05:51:14;7.90;;;2.20;;
5867;SDS011;2960;49.142;7.768;2023-02-04T05:53:41;8.80;;;2.50;;
5867;SDS011;2960;49.142;7.768;2023-02-04T05:56:08;8.27;;;2.27;;
5867;SDS011;2960;49.142;7.768;2023-02-04T05:58:35;8.00;;;2.30;;
5867;SDS011;2960;49.142;7.768;2023-02-04T06:01:02;8.30;;;2.30;;
5867;SDS011;2960;49.142;7.768;2023-02-04T06:03:30;7.50;;;2.17;;
5867;SDS011;2960;49.142;7.768;2023-02-04T06:05:59;7.30;;;2.00;;
5867;SDS011;2960;49.142;7.768;2023-02-04T06:08:26;7.73;;;1.90;;
5867;SDS011;2960;49.142;7.768;2023-02-04T06:10:53;7.47;;;2.10;;
5867;SDS011;2960;49.142;7.768;2023-02-04T06:13:20;7.70;;;2.10;;
5867;SDS011;2960;49.142;7.768;2023-02-04T06:15:47;7.57;;;2.13;;
5867;SDS011;2960;49.142;7.768;2023-02-04T06:18:14;8.07;;;2.17;;
5867;SDS011;2960;49.142;7.768;2023-02-04T06:20:41;7.57;;;2.10;;
5867;SDS011;2960;49.142;7.768;2023-02-04T06:23:10;7.93;;;2.00;;
5867;SDS011;2960;49.142;7.768;2023-02-04T06:25:37;7.70;;;2.30;;
5867;SDS011;2960;49.142;7.768;2023-02-04T06:28:04;7.30;;;1.90;;
5867;SDS011;2960;49.142;7.768;2023-02-04T06:30:31;7.50;;;2.00;;
5867;SDS011;2960;49.142;7.768;2023-02-04T06:32:58;7.43;;;2.00;;
5867;SDS011;2960;49.142;7.768;2023-02-04T06:35:25;7.37;;;2.00;;
5867;SDS011;2960;49.142;7.768;2023-02-04T06:37:52;9.33;;;2.40;;
5867;SDS011;2960;49.142;7.768;2023-02-04T06:40:20;7.40;;;2.10;;
5867;SDS011;2960;49.142;7.768;2023-02-04T06:42:48;7.40;;;2.03;;
5867;SDS011;2960;49.142;7.768;2023-02-04T06:45:15;7.90;;;2.20;;
5867;SDS011;2960;49.142;7.768;2023-02-04T06:47:42;7.47;;;1.90;;
5867;SDS011;2960;49.142;7.768;2023-02-04T06:50:09;7.47;;;2.10;;
5867;SDS011;2960;49.142;7.768;2023-02-04T06:52:36;7.50;;;1.93;;
5867;SDS011;2960;49.142;7.768;2023-02-04T06:55:04;7.60;;;2.10;;
5867;SDS011;2960;49.142;7.768;2023-02-04T06:57:32;8.20;;;2.00;;
5867;SDS011;2960;49.142;7.768;2023-02-04T06:59:59;7.53;;;2.00;;
5867;SDS011;2960;49.142;7.768;2023-02-04T07:02:26;7.50;;;2.07;;
5867;SDS011;2960;49.142;7.768;2023-02-04T07:04:54;8.33;;;2.03;;
5867;SDS011;2960;49.142;7.768;2023-02-04T07:07:21;7.77;;;2.40;;
5867;SDS011;2960;49.142;7.768;2023-02-04T07:09:48;7.90;;;2.10;;
5867;SDS011;2960;49.142;7.768;2023-02-04T07:12:18;7.43;;;2.20;;
5867;SDS011;2960;49.142;7.768;2023-02-04T07:14:46;7.70;;;2.10;;
5867;SDS011;2960;49.142;7.768;2023-02-04T07:17:13;8.10;;;2.30;;
5867;SDS011;2960;49.142;7.768;2023-02-04T07:19:40;8.10;;;2.40;;
5867;SDS011;2960;49.142;7.768;2023-02-04T07:22:07;8.10;;;2.50;;
5867;SDS011;2960;49.142;7.768;2023-02-04T07:24:39;7.67;;;2.30;;
5867;SDS011;2960;49.142;7.768;2023-02-04T07:27:06;7.90;;;2.40;;
5867;SDS011;2960;49.142;7.768;2023-02-04T07:29:33;8.30;;;2.30;;
5867;SDS011;2960;49.142;7.768;2023-02-04T07:32:02;7.77;;;2.30;;
5867;SDS011;2960;49.142;7.768;2023-02-04T07:34:29;8.23;;;2.50;;
5867;SDS011;2960;49.142;7.768;2023-02-04T07:36:58;7.70;;;2.40;;
5867;SDS011;2960;49.142;7.768;2023-02-04T07:39:27;7.70;;;2.40;;
5867;SDS011;2960;49.142;7.768;2023-02-04T07:41:54;8.30;;;2.60;;
5867;SDS011;2960;49.142;7.768;2023-02-04T07:44:21;7.67;;;2.40;;
5867;SDS011;2960;49.142;7.768;2023-02-04T07:46:48;7.80;;;2.23;;
5867;SDS011;2960;49.142;7.768;2023-02-04T07:49:19;7.70;;;2.40;;
5867;SDS011;2960;49.142;7.768;2023-02-04T07:51:50;7.73;;;2.47;;
5867;SDS011;2960;49.142;7.768;2023-02-04T07:54:18;7.63;;;2.33;;
5867;SDS011;2960;49.142;7.768;2023-02-04T07:56:45;8.00;;;2.50;;
5867;SDS011;2960;49.142;7.768;2023-02-04T07:59:12;7.53;;;2.20;;
5867;SDS011;2960;49.142;7.768;2023-02-04T08:01:39;7.83;;;2.60;;
5867;SDS011;2960;49.142;7.768;2023-02-04T08:04:06;8.10;;;2.43;;
5867;SDS011;2960;49.142;7.768;2023-02-04T08:06:35;8.10;;;2.50;;
5867;SDS011;2960;49.142;7.768;2023-02-04T08:09:02;7.63;;;2.40;;
5867;SDS011;2960;49.142;7.768;2023-02-04T08:11:29;7.57;;;2.40;;
5867;SDS011;2960;49.142;7.768;2023-02-04T08:13:56;7.70;;;2.30;;
5867;SDS011;2960;49.142;7.768;2023-02-04T08:16:23;7.73;;;2.40;;
5867;SDS011;2960;49.142;7.768;2023-02-04T08:18:50;7.60;;;2.40;;
5867;SDS011;2960;49.142;7.768;2023-02-04T08:21:18;7.63;;;2.13;;
5867;SDS011;2960;49.142;7.768;2023-02-04T08:23:46;7.70;;;2.40;;
5867;SDS011;2960;49.142;7.768;2023-02-04T08:26:13;7.90;;;2.30;;
5867;SDS011;2960;49.142;7.768;2023-02-04T08:28:40;7.50;;;2.10;;
5867;SDS011;2960;49.142;7.768;2023-02-04T08:31:07;7.67;;;2.30;;
5867;SDS011;2960;49.142;7.768;2023-02-04T08:33:36;7.63;;;2.20;;
5867;SDS011;2960;49.142;7.768;2023-02-04T08:36:04;7.70;;;2.40;;
5867;SDS011;2960;49.142;7.768;2023-02-04T08:38:32;7.70;;;2.40;;
5867;SDS011;2960;49.142;7.768;2023-02-04T08:41:01;7.87;;;2.63;;
5867;SDS011;2960;49.142;7.768;2023-02-04T08:43:28;7.60;;;2.40;;
5867;SDS011;2960;49.142;7.768;2023-02-04T08:45:55;7.80;;;2.30;;
5867;SDS011;2960;49.142;7.768;2023-02-04T08:48:25;8.30;;;2.50;;
5867;SDS011;2960;49.142;7.768;2023-02-04T08:50:52;8.30;;;2.70;;
5867;SDS011;2960;49.142;7.768;2023-02-04T08:53:19;8.53;;;2.77;;
5867;SDS011;2960;49.142;7.768;2023-02-04T08:55:46;7.70;;;2.33;;
5867;SDS011;2960;49.142;7.768;2023-02-04T08:58:15;7.80;;;2.30;;
5867;SDS011;2960;49.142;7.768;2023-02-04T09:00:42;7.80;;;2.40;;
5867;SDS011;2960;49.142;7.768;2023-02-04T09:03:09;7.93;;;2.60;;
5867;SDS011;2960;49.142;7.768;2023-02-04T09:05:36;8.87;;;2.40;;
5867;SDS011;2960;49.142;7.768;2023-02-04T09:08:03;8.20;;;2.57;;
5867;SDS011;2960;49.142;7.768;2023-02-04T09:10:30;8.10;;;2.70;;
5867;SDS011;2960;49.142;7.768;2023-02-04T09:12:57;7.93;;;2.70;;
5867;SDS011;2960;49.142;7.768;2023-02-04T09:15:26;8.80;;;2.80;;
5867;SDS011;2960;49.142;7.768;2023-02-04T09:17:53;7.80;;;2.40;;
5867;SDS011;2960;49.142;7.768;2023-02-04T09:20:28;8.10;;;2.40;;
5867;SDS011;2960;49.142;7.768;2023-02-04T09:22:56;8.10;;;2.57;;
5867;SDS011;2960;49.142;7.768;2023-02-04T09:25:23;8.63;;;2.73;;
5867;SDS011;2960;49.142;7.768;2023-02-04T09:27:50;8.00;;;2.73;;
5867;SDS011;2960;49.142;7.768;2023-02-04T09:30:17;9.13;;;2.77;;
5867;SDS011;2960;49.142;7.768;2023-02-04T09:32:46;8.33;;;2.83;;
5867;SDS011;2960;49.142;7.768;2023-02-04T09:35:13;9.10;;;3.10;;
5867;SDS011;2960;49.142;7.768;2023-02-04T09:37:40;8.30;;;3.03;;
5867;SDS011;2960;49.142;7.768;2023-02-04T09:40:08;10.60;;;3.40;;
5867;SDS011;2960;49.142;7.768;2023-02-04T09:42:41;10.30;;;3.23;;
5867;SDS011;2960;49.142;7.768;2023-02-04T09:45:12;10.40;;;3.27;;
5867;SDS011;2960;49.142;7.768;2023-02-04T09:47:46;8.67;;;3.20;;
5867;SDS011;2960;49.142;7.768;2023-02-04T09:50:15;8.43;;;3.27;;
5867;SDS011;2960;49.142;7.768;2023-02-04T09:52:45;9.40;;;3.40;;
5867;SDS011;2960;49.142;7.768;2023-02-04T09:55:16;8.80;;;3.33;;
5867;SDS011;2960;49.142;7.768;2023-02-04T09:57:45;9.47;;;3.53;;
5867;SDS011;2960;49.142;7.768;2023-02-04T10:00:16;9.10;;;3.50;;
5867;SDS011;2960;49.142;7.768;2023-02-04T10:02:47;9.50;;;3.33;;
5867;SDS011;2960;49.142;7.768;2023-02-04T10:05:15;9.10;;;3.87;;
5867;SDS011;2960;49.142;7.768;2023-02-04T10:07:47;9.70;;;3.70;;
5867;SDS011;2960;49.142;7.768;2023-02-04T10:10:15;8.60;;;3.30;;
5867;SDS011;2960;49.142;7.768;2023-02-04T10:12:44;9.23;;;3.30;;
5867;SDS011;2960;49.142;7.768;2023-02-04T10:15:16;8.90;;;3.30;;
5867;SDS011;2960;49.142;7.768;2023-02-04T10:17:50;9.03;;;3.50;;
5867;SDS011;2960;49.142;7.768;2023-02-04T10:20:22;9.20;;;3.60;;
5867;SDS011;2960;49.142;7.768;2023-02-04T10:22:51;9.40;;;3.40;;
5867;SDS011;2960;49.142;7.768;2023-02-04T10:25:20;9.93;;;3.17;;
5867;SDS011;2960;49.142;7.768;2023-02-04T10:27:49;9.57;;;3.00;;
5867;SDS011;2960;49.142;7.768;2023-02-04T10:30:20;9.20;;;3.73;;
5867;SDS011;2960;49.142;7.768;2023-02-04T10:32:51;10.20;;;3.63;;
5867;SDS011;2960;49.142;7.768;2023-02-04T10:35:20;10.40;;;3.20;;
5867;SDS011;2960;49.142;7.768;2023-02-04T10:38:01;10.17;;;3.43;;
5867;SDS011;2960;49.142;7.768;2023-02-04T10:40:29;10.40;;;3.73;;
5867;SDS011;2960;49.142;7.768;2023-02-04T10:42:58;9.20;;;3.10;;
5867;SDS011;2960;49.142;7.768;2023-02-04T10:45:34;10.27;;;4.03;;
5867;SDS011;2960;49.142;7.768;2023-02-04T10:48:02;10.17;;;4.20;;
5867;SDS011;2960;49.142;7.768;2023-02-04T10:50:32;11.13;;;3.80;;
5867;SDS011;2960;49.142;7.768;2023-02-04T10:52:59;12.53;;;4.47;;
5867;SDS011;2960;49.142;7.768;2023-02-04T10:55:40;9.00;;;3.90;;
5867;SDS011;2960;49.142;7.768;2023-02-04T10:58:08;10.30;;;3.83;;
5867;SDS011;2960;49.142;7.768;2023-02-04T11:00:41;8.57;;;3.20;;
5867;SDS011;2960;49.142;7.768;2023-02-04T11:03:11;9.33;;;3.40;;
5867;SDS011;2960;49.142;7.768;2023-02-04T11:05:42;10.17;;;3.50;;
5867;SDS011;2960;49.142;7.768;2023-02-04T11:08:17;9.07;;;3.50;;
5867;SDS011;2960;49.142;7.768;2023-02-04T11:10:53;8.70;;;3.20;;
5867;SDS011;2960;49.142;7.768;2023-02-04T11:13:24;10.67;;;3.43;;
5867;SDS011;2960;49.142;7.768;2023-02-04T11:16:08;9.10;;;3.33;;
5867;SDS011;2960;49.142;7.768;2023-02-04T11:18:44;9.90;;;3.60;;
5867;SDS011;2960;49.142;7.768;2023-02-04T11:21:14;9.23;;;3.30;;
5867;SDS011;2960;49.142;7.768;2023-02-04T11:23:50;9.20;;;3.53;;
5867;SDS011;2960;49.142;7.768;2023-02-04T11:26:31;9.40;;;3.60;;
5867;SDS011;2960;49.142;7.768;2023-02-04T11:29:08;9.07;;;3.43;;
5867;SDS011;2960;49.142;7.768;2023-02-04T11:32:00;9.53;;;3.50;;
5867;SDS011;2960;49.142;7.768;2023-02-04T11:34:42;9.40;;;3.93;;
5867;SDS011;2960;49.142;7.768;2023-02-04T11:37:18;10.03;;;3.70;;
5867;SDS011;2960;49.142;7.768;2023-02-04T11:40:00;9.90;;;3.80;;
5867;SDS011;2960;49.142;7.768;2023-02-04T11:42:42;10.37;;;4.03;;
5867;SDS011;2960;49.142;7.768;2023-02-04T11:45:11;9.80;;;3.90;;
5867;SDS011;2960;49.142;7.768;2023-02-04T11:47:41;9.27;;;3.73;;
5867;SDS011;2960;49.142;7.768;2023-02-04T11:50:14;10.40;;;4.00;;
5867;SDS011;2960;49.142;7.768;2023-02-04T11:52:47;10.27;;;4.00;;
5867;SDS011;2960;49.142;7.768;2023-02-04T11:55:14;10.10;;;4.00;;
5867;SDS011;2960;49.142;7.768;2023-02-04T11:57:43;10.63;;;4.30;;
5867;SDS011;2960;49.142;7.768;2023-02-04T12:00:12;10.37;;;4.00;;
5867;SDS011;2960;49.142;7.768;2023-02-04T12:02:41;11.67;;;4.30;;
5867;SDS011;2960;49.142;7.768;2023-02-04T12:05:13;11.80;;;4.10;;
5867;SDS011;2960;49.142;7.768;2023-02-04T12:07:43;11.80;;;3.80;;
5867;SDS011;2960;49.142;7.768;2023-02-04T12:10:12;9.77;;;3.50;;
5867;SDS011;2960;49.142;7.768;2023-02-04T12:12:49;11.20;;;4.00;;
5867;SDS011;2960;49.142;7.768;2023-02-04T12:15:22;12.73;;;4.27;;
5867;SDS011;2960;49.142;7.768;2023-02-04T12:20:40;10.47;;;3.47;;
5867;SDS011;2960;49.142;7.768;2023-02-04T12:23:07;10.47;;;3.93;;
5867;SDS011;2960;49.142;7.768;2023-02-04T12:25:34;11.30;;;3.87;;
5867;SDS011;2960;49.142;7.768;2023-02-04T12:28:01;10.93;;;3.70;;
5867;SDS011;2960;49.142;7.768;2023-02-04T12:30:29;9.63;;;3.77;;
5867;SDS011;2960;49.142;7.768;2023-02-04T12:32:56;9.47;;;3.90;;
5867;SDS011;2960;49.142;7.768;2023-02-04T12:35:23;12.53;;;4.27;;
5867;SDS011;2960;49.142;7.768;2023-02-04T12:37:51;10.60;;;4.20;;
5867;SDS011;2960;49.142;7.768;2023-02-04T12:40:19;11.20;;;3.70;;
5867;SDS011;2960;49.142;7.768;2023-02-04T12:42:47;9.50;;;3.80;;
5867;SDS011;2960;49.142;7.768;2023-02-04T12:45:15;10.57;;;4.10;;
5867;SDS011;2960;49.142;7.768;2023-02-04T12:47:45;10.83;;;3.80;;
5867;SDS011;2960;49.142;7.768;2023-02-04T12:50:14;12.27;;;4.23;;
5867;SDS011;2960;49.142;7.768;2023-02-04T12:52:46;10.07;;;3.73;;
5867;SDS011;2960;49.142;7.768;2023-02-04T12:55:16;11.13;;;3.90;;
5867;SDS011;2960;49.142;7.768;2023-02-04T12:57:44;9.83;;;3.93;;
5867;SDS011;2960;49.142;7.768;2023-02-04T13:00:12;10.17;;;4.00;;
5867;SDS011;2960;49.142;7.768;2023-02-04T13:02:42;10.03;;;4.00;;
5867;SDS011;2960;49.142;7.768;2023-02-04T13:05:09;9.47;;;3.63;;
5867;SDS011;2960;49.142;7.768;2023-02-04T13:07:37;9.23;;;3.50;;
5867;SDS011;2960;49.142;7.768;2023-02-04T13:10:05;10.93;;;3.70;;
5867;SDS011;2960;49.142;7.768;2023-02-04T13:12:36;14.80;;;3.90;;
5867;SDS011;2960;49.142;7.768;2023-02-04T13:15:04;10.80;;;3.80;;
5867;SDS011;2960;49.142;7.768;2023-02-04T13:17:32;9.77;;;3.43;;
5867;SDS011;2960;49.142;7.768;2023-02-04T13:20:02;11.97;;;3.53;;
5867;SDS011;2960;49.142;7.768;2023-02-04T13:22:32;10.43;;;3.50;;
5867;SDS011;2960;49.142;7.768;2023-02-04T13:24:59;9.40;;;3.40;;
5867;SDS011;2960;49.142;7.768;2023-02-04T13:27:27;11.33;;;4.40;;
5867;SDS011;2960;49.142;7.768;2023-02-04T13:29:57;10.30;;;4.20;;
5867;SDS011;2960;49.142;7.768;2023-02-04T13:32:24;9.40;;;3.80;;
5867;SDS011;2960;49.142;7.768;2023-02-04T13:34:51;10.20;;;4.10;;
5867;SDS011;2960;49.142;7.768;2023-02-04T13:37:18;10.80;;;4.10;;
5867;SDS011;2960;49.142;7.768;2023-02-04T13:39:45;10.40;;;4.20;;
5867;SDS011;2960;49.142;7.768;2023-02-04T13:42:12;12.40;;;4.97;;
5867;SDS011;2960;49.142;7.768;2023-02-04T13:44:39;14.10;;;5.17;;
5867;SDS011;2960;49.142;7.768;2023-02-04T13:47:08;10.70;;;4.57;;
5867;SDS011;2960;49.142;7.768;2023-02-04T13:49:35;11.60;;;5.00;;
5867;SDS011;2960;49.142;7.768;2023-02-04T13:52:02;10.77;;;4.90;;
5867;SDS011;2960;49.142;7.768;2023-02-04T13:54:30;11.10;;;4.80;;
5867;SDS011;2960;49.142;7.768;2023-02-04T13:56:57;10.70;;;4.80;;
5867;SDS011;2960;49.142;7.768;2023-02-04T13:59:24;11.60;;;4.50;;
5867;SDS011;2960;49.142;7.768;2023-02-04T14:01:51;10.93;;;4.40;;
5867;SDS011;2960;49.142;7.768;2023-02-04T14:04:20;10.93;;;4.43;;
5867;SDS011;2960;49.142;7.768;2023-02-04T14:06:47;11.00;;;4.50;;
5867;SDS011;2960;49.142;7.768;2023-02-04T14:09:16;10.57;;;4.10;;
5867;SDS011;2960;49.142;7.768;2023-02-04T14:11:43;10.30;;;4.10;;
5867;SDS011;2960;49.142;7.768;2023-02-04T14:14:11;10.50;;;4.03;;
5867;SDS011;2960;49.142;7.768;2023-02-04T14:16:38;11.10;;;3.97;;
5867;SDS011;2960;49.142;7.768;2023-02-04T14:19:05;11.10;;;4.30;;
5867;SDS011;2960;49.142;7.768;2023-02-04T14:21:34;10.50;;;3.90;;
5867;SDS011;2960;49.142;7.768;2023-02-04T14:24:02;10.80;;;4.00;;
5867;SDS011;2960;49.142;7.768;2023-02-04T14:26:29;10.97;;;4.10;;
5867;SDS011;2960;49.142;7.768;2023-02-04T14:28:56;11.03;;;4.10;;
5867;SDS011;2960;49.142;7.768;2023-02-04T14:31:23;10.47;;;4.10;;
5867;SDS011;2960;49.142;7.768;2023-02-04T14:33:51;12.40;;;3.97;;
5867;SDS011;2960;49.142;7.768;2023-02-04T14:36:24;10.60;;;4.30;;
5867;SDS011;2960;49.142;7.768;2023-02-04T14:38:52;11.77;;;4.60;;
5867;SDS011;2960;49.142;7.768;2023-02-04T14:41:21;11.07;;;4.23;;
5867;SDS011;2960;49.142;7.768;2023-02-04T14:43:50;10.10;;;4.10;;
5867;SDS011;2960;49.142;7.768;2023-02-04T14:46:17;12.20;;;3.90;;
5867;SDS011;2960;49.142;7.768;2023-02-04T14:48:44;11.43;;;4.00;;
5867;SDS011;2960;49.142;7.768;2023-02-04T14:51:11;13.47;;;4.23;;
5867;SDS011;2960;49.142;7.768;2023-02-04T14:53:40;14.20;;;3.77;;
5867;SDS011;2960;49.142;7.768;2023-02-04T14:56:08;10.43;;;3.90;;
5867;SDS011;2960;49.142;7.768;2023-02-04T14:58:35;10.73;;;4.13;;
5867;SDS011;2960;49.142;7.768;2023-02-04T15:01:05;10.40;;;3.83;;
5867;SDS011;2960;49.142;7.768;2023-02-04T15:03:32;11.30;;;3.90;;
5867;SDS011;2960;49.142;7.768;2023-02-04T15:06:02;10.10;;;3.83;;
5867;SDS011;2960;49.142;7.768;2023-02-04T15:08:29;9.77;;;3.47;;
5867;SDS011;2960;49.142;7.768;2023-02-04T15:10:57;11.33;;;3.90;;
5867;SDS011;2960;49.142;7.768;2023-02-04T15:13:26;10.40;;;3.73;;
5867;SDS011;2960;49.142;7.768;2023-02-04T15:15:53;11.13;;;3.70;;
5867;SDS011;2960;49.142;7.768;2023-02-04T15:18:20;9.80;;;3.50;;
5867;SDS011;2960;49.142;7.768;2023-02-04T15:20:47;11.17;;;3.87;;
5867;SDS011;2960;49.142;7.768;2023-02-04T15:23:14;9.80;;;3.67;;